Time;durP1;ratioP1;P1;durP2;ratioP2;P2;SDS_P1;SDS_P2;PMS_P1;PMS_P2;Temp;Humidity;BMP_temperature;BMP_pressure;BME280_temperature;BME280_humidity;BME280_pressure;Samples;Min_cycle;Max_cycle;Signal;HPM_P1;HPM_P2
2022/11/21 00:01:23;;;;;;;;;;;21.30;46.80;;;;;;5016873;28;20312;-71
2022/11/21 00:03:48;;;;;;;;;;;21.30;46.90;;;;;;5019112;28;19928;-70
2022/11/21 00:06:14;;;;;;;;;;;21.30;46.80;;;;;;5018962;28;19921;-70
2022/11/21 00:08:39;;;;;;;;;;;21.20;46.70;;;;;;5035804;28;19932;-70
2022/11/21 00:11:05;;;;;;;;;;;21.20;46.70;;;;;;5018923;28;19975;-70
2022/11/21 00:13:30;;;;;;;;;;;21.20;46.80;;;;;;5035343;28;19921;-70
2022/11/21 00:15:56;;;;;;;;;;;21.20;46.90;;;;;;5018744;28;19929;-70
2022/11/21 00:18:21;;;;;;;;;;;21.20;46.90;;;;;;5018993;28;19929;-70
2022/11/21 00:20:47;;;;;;;;;;;21.10;46.80;;;;;;5018784;28;19921;-70
2022/11/21 00:23:12;;;;;;;;;;;21.10;46.80;;;;;;5035548;28;20331;-70
2022/11/21 00:25:38;;;;;;;;;;;21.10;46.80;;;;;;5018764;28;19921;-70
2022/11/21 00:28:03;;;;;;;;;;;21.10;46.80;;;;;;5018638;28;20313;-70
2022/11/21 00:30:29;;;;;;;;;;;21.10;46.90;;;;;;5002331;28;20423;-70
2022/11/21 00:32:54;;;;;;;;;;;21.10;46.90;;;;;;5018576;28;19928;-70
2022/11/21 00:35:20;;;;;;;;;;;21.10;46.90;;;;;;5018411;28;20446;-70
2022/11/21 00:37:47;;;;;;;;;;;21.00;46.90;;;;;;5018406;28;19932;-70
2022/11/21 00:40:13;;;;;;;;;;;21.00;47.00;;;;;;5019014;28;20018;-70
2022/11/21 00:42:38;;;;;;;;;;;21.00;47.00;;;;;;5018423;28;19983;-70
2022/11/21 00:45:04;;;;;;;;;;;21.00;47.00;;;;;;5018563;28;19924;-70
2022/11/21 00:47:29;;;;;;;;;;;20.90;46.90;;;;;;5018234;28;20019;-70
2022/11/21 00:49:55;;;;;;;;;;;20.90;47.00;;;;;;5018590;28;19921;-70
2022/11/21 00:52:20;;;;;;;;;;;20.90;47.10;;;;;;5034711;28;19921;-70
2022/11/21 00:54:46;;;;;;;;;;;20.90;47.00;;;;;;5034607;28;19929;-70
2022/11/21 00:57:11;;;;;;;;;;;20.90;47.00;;;;;;5018052;28;19921;-70
2022/11/21 00:59:37;;;;;;;;;;;20.90;47.00;;;;;;5018051;28;19920;-70
2022/11/21 01:02:02;;;;;;;;;;;20.80;47.00;;;;;;5017965;28;19925;-70
2022/11/21 01:04:31;;;;;;;;;;;20.80;46.90;;;;;;5001623;28;19921;-70
2022/11/21 01:06:57;;;;;;;;;;;20.80;46.90;;;;;;5017885;28;19922;-70
2022/11/21 01:09:22;;;;;;;;;;;20.80;46.90;;;;;;5018174;28;19928;-70
2022/11/21 01:11:48;;;;;;;;;;;20.80;47.00;;;;;;5034223;28;19921;-70
2022/11/21 01:14:13;;;;;;;;;;;20.80;47.00;;;;;;5017933;28;19971;-70
2022/11/21 01:16:39;;;;;;;;;;;20.80;47.00;;;;;;5017704;28;19932;-70
2022/11/21 01:19:04;;;;;;;;;;;20.80;47.00;;;;;;5034171;28;19928;-70
2022/11/21 01:21:30;;;;;;;;;;;20.70;47.00;;;;;;5017989;28;20430;-70
2022/11/21 01:23:57;;;;;;;;;;;20.70;47.00;;;;;;5034457;28;19921;-70
2022/11/21 01:26:23;;;;;;;;;;;20.70;47.00;;;;;;5017756;28;20289;-70
2022/11/21 01:28:48;;;;;;;;;;;20.60;47.00;;;;;;5017834;28;19928;-71
2022/11/21 01:31:18;;;;;;;;;;;20.60;46.90;;;;;;5017476;28;19921;-71
2022/11/21 01:33:43;;;;;;;;;;;20.60;47.00;;;;;;5001142;28;19921;-71
2022/11/21 01:36:12;;;;;;;;;;;20.60;47.00;;;;;;5017319;28;19932;-71
2022/11/21 01:38:38;;;;;;;;;;;20.60;47.10;;;;;;5033890;28;19921;-71
2022/11/21 01:41:03;;;;;;;;;;;20.60;47.10;;;;;;5017348;28;20389;-71
2022/11/21 01:43:29;;;;;;;;;;;20.50;47.00;;;;;;5000939;28;19979;-71
2022/11/21 01:45:54;;;;;;;;;;;20.50;47.00;;;;;;5017536;28;19921;-71
2022/11/21 01:48:31;;;;;;;;;;;20.50;47.00;;;;;;5033622;28;19921;-70
2022/11/21 01:50:57;;;;;;;;;;;20.50;47.00;;;;;;5017231;28;19921;-71
2022/11/21 01:53:23;;;;;;;;;;;20.50;47.00;;;;;;5033585;28;20448;-71
2022/11/21 01:55:48;;;;;;;;;;;20.50;47.00;;;;;;5016980;28;19957;-71
2022/11/21 01:58:14;;;;;;;;;;;20.40;47.00;;;;;;5016921;28;19928;-71
2022/11/21 02:00:39;;;;;;;;;;;20.40;47.00;;;;;;5016934;28;19971;-71
2022/11/21 02:03:06;;;;;;;;;;;20.40;46.90;;;;;;5016943;28;20009;-71
2022/11/21 02:05:32;;;;;;;;;;;20.40;47.00;;;;;;5016856;28;19921;-71
2022/11/21 02:07:58;;;;;;;;;;;20.40;47.00;;;;;;5017075;28;19927;-71
2022/11/21 02:10:23;;;;;;;;;;;20.40;47.10;;;;;;5016853;28;20300;-71
2022/11/21 02:12:50;;;;;;;;;;;20.30;46.90;;;;;;5017032;28;19925;-71
2022/11/21 02:15:16;;;;;;;;;;;20.30;46.90;;;;;;5016585;28;19969;-71
2022/11/21 02:17:41;;;;;;;;;;;20.30;47.00;;;;;;5016616;28;19964;-70
2022/11/21 02:20:08;;;;;;;;;;;20.30;47.00;;;;;;5016941;28;19921;-70
2022/11/21 02:22:43;;;;;;;;;;;20.30;46.90;;;;;;5016843;28;19921;-70
2022/11/21 02:25:10;;;;;;;;;;;20.30;47.10;;;;;;5032536;28;20011;-70
2022/11/21 02:27:36;;;;;;;;;;;20.30;47.00;;;;;;5016466;28;19925;-70
2022/11/21 02:30:01;;;;;;;;;;;20.30;47.10;;;;;;5033220;28;19991;-70
2022/11/21 02:32:31;;;;;;;;;;;20.20;46.90;;;;;;5016494;28;20107;-70
2022/11/21 02:34:57;;;;;;;;;;;20.20;47.00;;;;;;5016288;28;20451;-70
2022/11/21 02:37:22;;;;;;;;;;;20.30;47.10;;;;;;5016298;28;19925;-71
2022/11/21 02:39:48;;;;;;;;;;;20.20;47.10;;;;;;5033276;28;19933;-71
2022/11/21 02:42:20;;;;;;;;;;;20.20;47.10;;;;;;5016274;28;19921;-71
2022/11/21 02:44:48;;;;;;;;;;;20.20;47.00;;;;;;5016288;28;19932;-71
2022/11/21 02:47:14;;;;;;;;;;;20.20;47.00;;;;;;5016176;28;19921;-70
2022/11/21 02:49:41;;;;;;;;;;;20.10;47.00;;;;;;5032882;28;19943;-70
2022/11/21 02:52:06;;;;;;;;;;;20.10;47.00;;;;;;5016197;28;19925;-70
2022/11/21 02:54:32;;;;;;;;;;;20.10;47.00;;;;;;5032640;28;20360;-70
2022/11/21 02:56:57;;;;;;;;;;;20.10;47.00;;;;;;5032469;28;19928;-70
2022/11/21 02:59:23;;;;;;;;;;;20.10;47.10;;;;;;5016314;28;19976;-70
2022/11/21 03:01:48;;;;;;;;;;;20.10;47.10;;;;;;5015976;28;19921;-70
2022/11/21 03:04:14;;;;;;;;;;;20.00;47.10;;;;;;5032765;28;19943;-70
2022/11/21 03:06:39;;;;;;;;;;;20.10;47.20;;;;;;5032325;28;19925;-70
2022/11/21 03:09:05;;;;;;;;;;;20.00;47.10;;;;;;5016171;28;19921;-70
2022/11/21 03:11:30;;;;;;;;;;;20.00;47.10;;;;;;5032379;28;19922;-70
2022/11/21 03:13:56;;;;;;;;;;;20.00;47.10;;;;;;5015965;28;19922;-70
2022/11/21 03:16:21;;;;;;;;;;;20.00;47.20;;;;;;5032612;28;19921;-70
2022/11/21 03:18:47;;;;;;;;;;;20.00;47.10;;;;;;5016197;28;19970;-70
2022/11/21 03:21:12;;;;;;;;;;;20.00;47.20;;;;;;5032326;28;19929;-70
2022/11/21 03:23:38;;;;;;;;;;;20.00;47.20;;;;;;5016029;28;19971;-70
2022/11/21 03:26:03;;;;;;;;;;;20.00;47.30;;;;;;5032204;28;19928;-70
2022/11/21 03:28:29;;;;;;;;;;;20.00;47.30;;;;;;5016019;28;19932;-70
2022/11/21 03:30:54;;;;;;;;;;;19.90;47.10;;;;;;5032505;28;19921;-70
2022/11/21 03:33:20;;;;;;;;;;;19.90;47.20;;;;;;5032154;28;19948;-71
2022/11/21 03:35:46;;;;;;;;;;;19.90;47.10;;;;;;5032711;28;19935;-70
2022/11/21 03:38:11;;;;;;;;;;;19.90;47.20;;;;;;5036066;28;19971;-70
2022/11/21 03:40:37;;;;;;;;;;;19.90;47.20;;;;;;5036428;28;19982;-70
2022/11/21 03:43:05;;;;;;;;;;;19.90;47.20;;;;;;5036071;28;19921;-70
2022/11/21 03:45:30;;;;;;;;;;;19.90;47.30;;;;;;5019471;28;19974;-70
2022/11/21 03:47:56;;;;;;;;;;;19.90;47.30;;;;;;5035886;28;20341;-70
2022/11/21 03:50:21;;;;;;;;;;;19.80;47.40;;;;;;5036257;28;20392;-70
2022/11/21 03:52:47;;;;;;;;;;;19.90;47.30;;;;;;5019351;28;19921;-70
2022/11/21 03:55:12;;;;;;;;;;;19.90;47.30;;;;;;5019361;28;20392;-70
2022/11/21 03:57:38;;;;;;;;;;;19.90;47.30;;;;;;5035680;28;19947;-70
2022/11/21 04:00:03;;;;;;;;;;;19.80;47.30;;;;;;5036078;28;19921;-70
2022/11/21 04:02:29;;;;;;;;;;;19.90;47.40;;;;;;5019743;28;19925;-70
2022/11/21 04:04:54;;;;;;;;;;;19.90;47.30;;;;;;5019456;28;19920;-70
2022/11/21 04:07:20;;;;;;;;;;;19.90;47.30;;;;;;5019025;28;19921;-70
2022/11/21 04:09:45;;;;;;;;;;;19.90;48.00;;;;;;5019326;28;19925;-70
2022/11/21 04:12:11;;;;;;;;;;;19.90;47.20;;;;;;5019027;28;19921;-71
2022/11/21 04:14:36;;;;;;;;;;;19.90;47.20;;;;;;5018997;28;19925;-71
2022/11/21 04:17:02;;;;;;;;;;;19.90;47.20;;;;;;5035329;28;19921;-70
2022/11/21 04:19:27;;;;;;;;;;;19.90;47.20;;;;;;5035370;28;19987;-70
2022/11/21 04:21:53;;;;;;;;;;;19.90;47.30;;;;;;5035656;28;20340;-70
2022/11/21 04:24:18;;;;;;;;;;;20.00;47.20;;;;;;5035246;28;19928;-70
2022/11/21 04:26:44;;;;;;;;;;;20.00;47.10;;;;;;5035444;28;19928;-70
2022/11/21 04:29:09;;;;;;;;;;;19.90;47.10;;;;;;5035480;28;19932;-70
2022/11/21 04:31:35;;;;;;;;;;;19.90;47.10;;;;;;5018967;28;20015;-70
2022/11/21 04:34:01;;;;;;;;;;;19.90;47.00;;;;;;5035345;28;19927;-70
2022/11/21 04:36:26;;;;;;;;;;;20.00;47.10;;;;;;5018553;28;19921;-70
2022/11/21 04:38:52;;;;;;;;;;;20.00;46.90;;;;;;5035569;28;19928;-70
2022/11/21 04:41:17;;;;;;;;;;;20.00;47.00;;;;;;5034966;28;19948;-70
2022/11/21 04:43:43;;;;;;;;;;;20.00;47.00;;;;;;5002172;28;19928;-70
2022/11/21 04:46:08;;;;;;;;;;;20.00;46.90;;;;;;5018241;28;19925;-70
2022/11/21 04:48:34;;;;;;;;;;;20.00;46.80;;;;;;5034774;28;19917;-70
2022/11/21 04:50:59;;;;;;;;;;;20.10;46.90;;;;;;5018263;28;19921;-70
2022/11/21 04:53:25;;;;;;;;;;;20.10;46.80;;;;;;5018528;28;19928;-70
2022/11/21 04:55:50;;;;;;;;;;;20.10;46.80;;;;;;5018159;28;19925;-70
2022/11/21 04:58:16;;;;;;;;;;;20.10;46.70;;;;;;5018385;28;19928;-70
2022/11/21 05:00:41;;;;;;;;;;;20.10;46.70;;;;;;5018427;28;19927;-70
2022/11/21 05:03:07;;;;;;;;;;;20.10;46.70;;;;;;5018341;28;20419;-70
2022/11/21 05:05:32;;;;;;;;;;;20.20;46.60;;;;;;5034565;28;19921;-70
2022/11/21 05:07:57;;;;;;;;;;;20.20;46.70;;;;;;5018264;28;20404;-70
2022/11/21 05:10:23;;;;;;;;;;;20.20;46.60;;;;;;5017924;28;19979;-70
2022/11/21 05:15:39;;;;;;;;;;;20.20;46.60;;;;;;5020287;28;19929;-70
2022/11/21 05:18:04;;;;;;;;;;;20.40;46.70;;;;;;5017726;28;19921;-70
2022/11/21 05:20:29;;;;;;;;;;;20.20;46.50;;;;;;5034266;28;20007;-70
2022/11/21 05:22:55;;;;;;;;;;;20.10;46.40;;;;;;5001633;28;20403;-70
2022/11/21 05:25:20;;;;;;;;;;;20.30;46.60;;;;;;5034145;28;19976;-70
2022/11/21 05:27:46;;;;;;;;;;;20.30;46.50;;;;;;5034028;28;19927;-70
2022/11/21 05:30:11;;;;;;;;;;;20.30;46.40;;;;;;5034344;28;19925;-70
2022/11/21 05:32:37;;;;;;;;;;;20.30;46.50;;;;;;5034026;28;20377;-70
2022/11/21 05:35:02;;;;;;;;;;;20.30;46.30;;;;;;5017706;28;19925;-70
2022/11/21 05:37:28;;;;;;;;;;;20.30;46.40;;;;;;5017330;28;19921;-70
2022/11/21 05:39:53;;;;;;;;;;;20.40;46.40;;;;;;5017630;28;20289;-70
2022/11/21 05:43:44;;;;;;;;;;;20.40;46.40;;;;;;5033808;28;19925;-70
2022/11/21 05:45:04;;;;;;;;;;;20.40;46.30;;;;;;5020311;28;19921;-70
2022/11/21 05:47:30;;;;;;;;;;;20.40;46.30;;;;;;5018574;28;19974;-70
2022/11/21 05:49:55;;;;;;;;;;;20.40;46.20;;;;;;5033688;28;19921;-70
2022/11/21 05:52:21;;;;;;;;;;;20.50;46.40;;;;;;5017168;28;19921;-70
2022/11/21 05:54:46;;;;;;;;;;;20.50;46.40;;;;;;5017283;28;19932;-70
2022/11/21 05:57:12;;;;;;;;;;;20.50;46.20;;;;;;5017271;28;20328;-70
2022/11/21 05:59:37;;;;;;;;;;;20.50;46.10;;;;;;5016213;28;19928;-70
2022/11/21 06:04:47;;;;;;;;;;;20.50;46.20;;;;;;5033445;28;19928;-70
2022/11/21 06:07:12;;;;;;;;;;;20.50;46.20;;;;;;5033282;28;19921;-70
2022/11/21 06:09:38;;;;;;;;;;;20.50;46.10;;;;;;5033631;28;20315;-70
2022/11/21 06:12:03;;;;;;;;;;;20.50;46.00;;;;;;5033278;28;19925;-70
2022/11/21 06:14:29;;;;;;;;;;;20.50;46.30;;;;;;5016678;28;20285;-70
2022/11/21 06:16:54;;;;;;;;;;;20.60;46.20;;;;;;5033418;28;19922;-70
2022/11/21 06:19:20;;;;;;;;;;;20.60;46.20;;;;;;5016966;28;19921;-70
2022/11/21 06:21:45;;;;;;;;;;;20.60;46.00;;;;;;5016848;28;19925;-70
2022/11/21 06:24:11;;;;;;;;;;;20.60;46.10;;;;;;5016594;28;19921;-70
2022/11/21 06:26:36;;;;;;;;;;;20.60;46.10;;;;;;5016737;28;19921;-70
2022/11/21 06:29:02;;;;;;;;;;;20.60;46.10;;;;;;5016511;28;19925;-70
2022/11/21 06:31:27;;;;;;;;;;;20.60;46.10;;;;;;5016725;28;19921;-70
2022/11/21 06:33:53;;;;;;;;;;;20.60;46.10;;;;;;5033135;28;19921;-70
2022/11/21 06:36:19;;;;;;;;;;;20.70;46.10;;;;;;5016331;28;19925;-70
2022/11/21 06:38:44;;;;;;;;;;;20.60;46.00;;;;;;5032793;28;20344;-70
2022/11/21 06:41:10;;;;;;;;;;;20.70;46.00;;;;;;5016590;28;20008;-70
2022/11/21 06:43:36;;;;;;;;;;;20.70;46.00;;;;;;5016908;28;20294;-70
2022/11/21 06:46:02;;;;;;;;;;;20.70;46.00;;;;;;5016158;28;19921;-70
2022/11/21 06:48:31;;;;;;;;;;;20.70;46.00;;;;;;5016331;28;19956;-70
2022/11/21 06:50:57;;;;;;;;;;;20.70;46.00;;;;;;5016106;28;20297;-70
2022/11/21 06:53:23;;;;;;;;;;;20.70;46.00;;;;;;5039203;28;19921;-70
2022/11/21 06:55:48;;;;;;;;;;;20.70;46.00;;;;;;5039742;28;20373;-70
2022/11/21 06:58:14;;;;;;;;;;;20.80;46.00;;;;;;5016263;28;19921;-70
2022/11/21 07:00:39;;;;;;;;;;;20.70;46.00;;;;;;5015914;28;20373;-70
2022/11/21 07:03:04;;;;;;;;;;;20.70;46.00;;;;;;5016405;28;20012;-70
2022/11/21 07:05:30;;;;;;;;;;;20.80;46.00;;;;;;5022884;28;20376;-70
2022/11/21 07:07:59;;;;;;;;;;;20.80;46.10;;;;;;5032222;28;19921;-72
2022/11/21 07:10:24;;;;;;;;;;;20.70;46.20;;;;;;5015792;28;20385;-72
2022/11/21 07:15:34;;;;;;;;;;;20.80;46.30;;;;;;5052226;28;19931;-71
2022/11/21 07:18:00;;;;;;;;;;;20.80;46.30;;;;;;5020658;28;20293;-70
2022/11/21 07:20:26;;;;;;;;;;;20.80;46.30;;;;;;5015890;28;19929;-70
2022/11/21 07:22:54;;;;;;;;;;;20.80;46.30;;;;;;5033131;28;19927;-70
2022/11/21 07:25:20;;;;;;;;;;;20.80;46.30;;;;;;5034643;28;19921;-70
2022/11/21 07:27:45;;;;;;;;;;;20.80;46.30;;;;;;5021309;28;20016;-71
2022/11/21 07:30:11;;;;;;;;;;;20.80;46.30;;;;;;5033153;28;19921;-71
2022/11/21 07:32:37;;;;;;;;;;;20.80;46.30;;;;;;5035498;28;19921;-71
2022/11/21 07:35:02;;;;;;;;;;;20.90;46.40;;;;;;5020276;28;20312;-70
2022/11/21 07:37:28;;;;;;;;;;;20.80;46.40;;;;;;5015571;28;19928;-70
2022/11/21 07:39:53;;;;;;;;;;;20.80;46.10;;;;;;5032073;28;19928;-71
2022/11/21 07:42:19;;;;;;;;;;;20.80;46.30;;;;;;5016232;28;19932;-70
2022/11/21 07:44:44;;;;;;;;;;;20.90;46.40;;;;;;5035616;28;19944;-71
2022/11/21 07:47:09;;;;;;;;;;;20.80;46.40;;;;;;5051927;28;19970;-71
2022/11/21 07:49:35;;;;;;;;;;;20.80;46.40;;;;;;5035962;28;19943;-71
2022/11/21 07:52:00;;;;;;;;;;;20.90;46.40;;;;;;5020352;28;19928;-71
2022/11/21 07:54:26;;;;;;;;;;;20.90;46.40;;;;;;5015663;28;19982;-70
2022/11/21 07:56:51;;;;;;;;;;;21.00;46.60;;;;;;5031923;28;19921;-70
2022/11/21 07:59:18;;;;;;;;;;;20.80;46.60;;;;;;4999387;28;19928;-70
2022/11/21 08:01:43;;;;;;;;;;;20.90;46.70;;;;;;5048459;28;19921;-70
2022/11/21 08:04:09;;;;;;;;;;;20.90;46.70;;;;;;5015386;28;19929;-70
2022/11/21 08:06:34;;;;;;;;;;;20.90;46.80;;;;;;5047816;28;19969;-70
2022/11/21 08:09:00;;;;;;;;;;;21.00;46.90;;;;;;5046747;28;19928;-70
2022/11/21 08:11:25;;;;;;;;;;;20.90;46.80;;;;;;5061640;28;19929;-70
2022/11/21 08:13:51;;;;;;;;;;;20.90;46.90;;;;;;5030326;28;20447;-71
2022/11/21 08:16:16;;;;;;;;;;;20.80;46.80;;;;;;5031274;28;19937;-71
2022/11/21 08:18:41;;;;;;;;;;;21.00;47.60;;;;;;5031744;28;19925;-71
2022/11/21 08:21:07;;;;;;;;;;;20.90;47.00;;;;;;5032026;28;20293;-71
2022/11/21 08:23:32;;;;;;;;;;;20.80;46.90;;;;;;5034916;28;19921;-71
2022/11/21 08:25:58;;;;;;;;;;;20.90;46.90;;;;;;5036709;28;20304;-70
2022/11/21 08:28:23;;;;;;;;;;;20.90;46.90;;;;;;5036403;28;20385;-70
2022/11/21 08:30:49;;;;;;;;;;;20.90;46.90;;;;;;5036650;28;19925;-71
2022/11/21 08:33:14;;;;;;;;;;;20.90;46.90;;;;;;5035388;28;19921;-70
2022/11/21 08:35:41;;;;;;;;;;;20.90;46.90;;;;;;5035053;28;19925;-70
2022/11/21 08:38:06;;;;;;;;;;;20.90;46.90;;;;;;5035705;28;19928;-70
2022/11/21 08:40:32;;;;;;;;;;;20.90;46.80;;;;;;5034978;28;19928;-70
2022/11/21 08:43:01;;;;;;;;;;;20.90;46.90;;;;;;5036436;28;19921;-70
2022/11/21 08:45:26;;;;;;;;;;;20.90;46.90;;;;;;5051934;28;19968;-70
2022/11/21 08:47:52;;;;;;;;;;;20.90;46.90;;;;;;5036031;28;19921;-70
2022/11/21 08:50:17;;;;;;;;;;;20.90;46.90;;;;;;5018625;28;19971;-70
2022/11/21 08:52:43;;;;;;;;;;;20.90;47.00;;;;;;5034772;28;20347;-70
2022/11/21 08:55:08;;;;;;;;;;;20.90;46.90;;;;;;5051295;28;19936;-70
2022/11/21 08:57:40;;;;;;;;;;;20.90;47.00;;;;;;5034929;28;19921;-70
2022/11/21 09:00:06;;;;;;;;;;;20.90;46.90;;;;;;5034727;28;20032;-71
2022/11/21 09:02:31;;;;;;;;;;;20.90;47.00;;;;;;5035149;28;20407;-71
2022/11/21 09:04:57;;;;;;;;;;;20.90;47.00;;;;;;5034857;28;20381;-70
2022/11/21 09:07:22;;;;;;;;;;;20.90;47.00;;;;;;5017995;28;19921;-70
2022/11/21 09:09:48;;;;;;;;;;;20.90;47.00;;;;;;5034741;28;19921;-70
2022/11/21 09:12:13;;;;;;;;;;;20.80;47.00;;;;;;5034799;28;19928;-71
2022/11/21 09:20:07;;;;;;;;;;;20.90;47.10;;;;;;5034295;28;19925;-71
2022/11/21 09:22:33;;;;;;;;;;;20.90;47.00;;;;;;5034750;28;19921;-70
2022/11/21 09:24:58;;;;;;;;;;;20.80;47.00;;;;;;5034477;28;19974;-71
2022/11/21 09:27:24;;;;;;;;;;;20.80;46.90;;;;;;5017567;28;19928;-70
2022/11/21 09:29:49;;;;;;;;;;;20.80;47.00;;;;;;5017620;28;19964;-70
2022/11/21 09:32:15;;;;;;;;;;;20.80;47.00;;;;;;5034364;28;20262;-70
2022/11/21 09:34:41;;;;;;;;;;;20.70;47.00;;;;;;5033961;28;19925;-70
2022/11/21 09:37:06;;;;;;;;;;;20.80;47.00;;;;;;5033905;28;20304;-70
2022/11/21 09:39:32;;;;;;;;;;;20.80;47.00;;;;;;5017403;28;19964;-71
2022/11/21 09:42:01;;;;;;;;;;;20.80;47.10;;;;;;5017341;28;20301;-71
2022/11/21 09:44:26;;;;;;;;;;;20.80;47.00;;;;;;5034132;28;20298;-71
2022/11/21 09:46:53;;;;;;;;;;;20.80;47.10;;;;;;5050540;28;19921;-70
2022/11/21 09:49:20;;;;;;;;;;;20.80;47.00;;;;;;5050292;28;20016;-70
2022/11/21 09:51:46;;;;;;;;;;;20.80;47.10;;;;;;5033626;28;20412;-71
2022/11/21 09:54:19;;;;;;;;;;;20.70;47.00;;;;;;5033624;28;19921;-70
2022/11/21 09:56:44;;;;;;;;;;;20.70;47.20;;;;;;5050205;28;19921;-70
2022/11/21 09:59:29;;;;;;;;;;;20.70;47.10;;;;;;5033276;28;19928;-70
2022/11/21 10:01:54;;;;;;;;;;;20.70;47.20;;;;;;5032606;28;19921;-70
2022/11/21 10:04:20;;;;;;;;;;;20.70;47.20;;;;;;5034417;28;20361;-70
2022/11/21 10:06:51;;;;;;;;;;;20.70;47.10;;;;;;5029195;28;19925;-70
2022/11/21 10:09:31;;;;;;;;;;;20.70;47.10;;;;;;5021467;28;20296;-70
2022/11/21 10:14:56;;;;;;;;;;;20.70;47.10;;;;;;5066255;28;19925;-71
2022/11/21 10:17:42;;;;;;;;;;;20.70;47.10;;;;;;5049729;28;20397;-71
2022/11/21 10:31:48;;;;;;;;;;;19.90;33.50;;;;;;5097420;28;19919;-73
2022/11/21 10:34:14;;;;;;;;;;;16.80;35.10;;;;;;5050058;28;20357;-73
2022/11/21 10:36:40;;;;;;;;;;;14.10;40.30;;;;;;5039562;28;19932;-73
2022/11/21 10:39:10;;;;;;;;;;;11.70;45.20;;;;;;5018428;28;19921;-73
2022/11/21 10:41:35;;;;;;;;;;;9.70;50.90;;;;;;5049943;28;19921;-73
2022/11/21 10:46:58;;;;;;;;;;;7.00;59.40;;;;;;5051894;28;19921;-73
2022/11/21 10:49:28;;;;;;;;;;;6.00;64.30;;;;;;5034967;28;19921;-74
2022/11/21 10:51:59;;;;;;;;;;;5.40;66.90;;;;;;5035104;28;19921;-74
2022/11/21 10:54:31;;;;;;;;;;;5.10;69.40;;;;;;5031628;28;19921;-73
2022/11/21 10:57:01;;;;;;;;;;;4.80;70.70;;;;;;5016525;28;20020;-73
2022/11/21 10:59:27;;;;;;;;;;;4.60;71.30;;;;;;5048722;28;19968;-73
2022/11/21 11:02:16;;;;;;;;;;;4.40;73.30;;;;;;5032204;28;19936;-73
2022/11/21 11:04:42;;;;;;;;;;;4.20;74.20;;;;;;5049408;28;19928;-72
2022/11/21 11:07:21;;;;;;;;;;;4.10;75.00;;;;;;5047300;28;20373;-73
2022/11/21 11:09:46;;;;;;;;;;;4.00;76.40;;;;;;5047608;28;19932;-73
2022/11/21 11:13:32;;;;;;;;;;;3.60;75.50;;;;;;5032619;28;19921;-73
2022/11/21 11:15:17;;;;;;;;;;;3.20;75.70;;;;;;5034105;28;19921;-73
2022/11/21 11:17:43;;;;;;;;;;;2.70;76.40;;;;;;5015507;28;19921;-73
2022/11/21 11:20:27;;;;;;;;;;;2.50;77.20;;;;;;5018666;28;19936;-73
2022/11/21 11:22:53;;;;;;;;;;;2.00;78.80;;;;;;5030189;28;20012;-73
2022/11/21 11:25:18;;;;;;;;;;;1.80;80.30;;;;;;5029179;28;19925;-72
2022/11/21 11:27:44;;;;;;;;;;;1.50;80.40;;;;;;5029856;28;19921;-74
2022/11/21 11:30:13;;;;;;;;;;;1.30;82.60;;;;;;5019482;28;20296;-73
2022/11/21 12:04:01;;;;;;;;;;;17.50;64.00;;;;;;5112391;27;19912;-64
2022/11/21 12:06:31;;;;;;;;;;;17.80;62.80;;;;;;5106904;28;19959;-64
2022/11/21 12:08:58;;;;;;;;;;;18.10;61.20;;;;;;5106919;28;20410;-65
2022/11/21 12:12:06;;;;;;;4.00;3.63;;;18.50;60.40;;;;;;5076373;28;20426;-63
2022/11/21 12:18:13;;;;;;;4.33;3.93;;;19.00;57.30;;;;;;5046616;28;20416;-71
2022/11/21 12:20:55;;;;;;;4.23;3.83;;;19.20;56.00;;;;;;5066000;28;20424;-67
2022/11/21 12:23:22;;;;;;;4.32;3.90;;;19.70;53.70;;;;;;5052617;28;20434;-68
2022/11/21 12:25:58;;;;;;;4.78;4.13;;;20.00;52.40;;;;;;5035090;28;20412;-68
2022/11/21 12:28:30;;;;;;;3.95;3.55;;;20.30;51.20;;;;;;5051357;28;20400;-68
2022/11/21 12:34:40;;;;;;;14.43;13.13;;;19.40;36.10;;;;;;5072595;28;20351;-70
2022/11/21 12:37:43;;;;;;;15.23;13.82;;;17.90;36.60;;;;;;5004025;28;20428;-69
2022/11/21 12:40:26;;;;;;;16.13;14.55;;;15.30;40.90;;;;;;5022178;28;20404;-70
2022/11/21 12:43:10;;;;;;;16.33;14.73;;;13.40;46.10;;;;;;4997501;28;20485;-69
2022/11/21 12:46:01;;;;;;;15.80;14.20;;;11.80;50.70;;;;;;5012790;28;20411;-70
2022/11/21 12:54:33;;;;;;;16.43;14.70;;;8.60;61.50;;;;;;5054615;28;20431;-69
2022/11/21 12:57:15;;;;;;;16.65;14.85;;;8.00;64.70;;;;;;5044767;28;20396;-69
2022/11/21 13:00:08;;;;;;;17.13;14.98;;;7.50;67.50;;;;;;5027267;28;20527;-70
2022/11/21 13:03:11;;;;;;;16.55;14.60;;;7.20;69.30;;;;;;5044630;28;20418;-69
2022/11/21 13:05:39;;;;;;;18.38;15.63;;;6.90;70.40;;;;;;5027655;28;20416;-70
2022/11/21 13:08:09;;;;;;;18.35;15.48;;;6.60;71.90;;;;;;5011061;28;20436;-69
2022/11/21 13:10:35;;;;;;;19.33;16.45;;;6.40;72.60;;;;;;4994815;28;20439;-70
2022/11/21 13:13:12;;;;;;;20.20;16.47;;;6.20;73.40;;;;;;5013820;28;20956;-69
2022/11/21 13:15:50;;;;;;;19.73;16.92;;;6.10;75.20;;;;;;5039251;28;20867;-69
2022/11/21 13:18:22;;;;;;;19.15;16.65;;;5.90;75.60;;;;;;5052673;28;20495;-69
2022/11/21 13:20:48;;;;;;;19.63;16.93;;;5.80;75.70;;;;;;5043959;28;20415;-70
2022/11/21 13:23:40;;;;;;;20.75;16.90;;;5.80;77.00;;;;;;5013505;28;20410;-69
2022/11/21 13:26:32;;;;;;;21.17;17.38;;;5.70;77.00;;;;;;5007438;28;20920;-69
2022/11/21 13:29:12;;;;;;;20.40;17.67;;;5.60;77.70;;;;;;5007257;28;20980;-70
2022/11/21 13:31:39;;;;;;;22.20;18.40;;;5.60;79.00;;;;;;4976205;28;20452;-70
2022/11/21 13:34:25;;;;;;;22.50;18.85;;;5.50;79.20;;;;;;5001076;28;20434;-69
2022/11/21 13:36:50;;;;;;;21.63;18.00;;;5.50;79.90;;;;;;4990831;28;20493;-69
2022/11/21 13:39:16;;;;;;;20.63;18.07;;;5.50;80.10;;;;;;5002729;28;20523;-69
2022/11/21 13:44:31;;;;;;;21.67;18.23;;;5.40;79.80;;;;;;4999738;28;20648;-69
2022/11/21 13:47:01;;;;;;;22.67;18.30;;;5.40;80.70;;;;;;4998055;28;20492;-70
2022/11/21 13:49:33;;;;;;;23.27;19.17;;;5.40;80.60;;;;;;4996605;28;20409;-68
2022/11/21 13:52:00;;;;;;;22.77;19.20;;;5.40;81.80;;;;;;4981271;28;20446;-69
2022/11/21 13:54:53;;;;;;;25.98;20.48;;;5.40;81.70;;;;;;4981375;28;20424;-70
2022/11/21 13:57:41;;;;;;;22.75;18.85;;;5.40;82.00;;;;;;4981498;28;20428;-70
2022/11/21 14:00:43;;;;;;;25.27;20.13;;;5.50;82.20;;;;;;5008662;28;20422;-69
2022/11/21 14:03:21;;;;;;;23.83;19.67;;;5.50;82.80;;;;;;5006400;28;20411;-69
2022/11/21 14:05:46;;;;;;;24.00;19.88;;;5.50;83.00;;;;;;5030492;28;20469;-69
2022/11/21 14:08:15;;;;;;;23.85;19.50;;;5.50;82.50;;;;;;4997036;28;20812;-70
2022/11/21 14:10:41;;;;;;;24.67;20.30;;;5.60;82.50;;;;;;4980668;28;20428;-70
2022/11/21 14:13:26;;;;;;;27.27;21.27;;;5.60;82.70;;;;;;5012924;28;20482;-69
2022/11/21 14:16:12;;;;;;;25.15;21.00;;;5.60;83.20;;;;;;4966928;28;20455;-69
2022/11/21 14:18:37;;;;;;;25.58;20.88;;;5.60;82.70;;;;;;4995989;28;20926;-69
2022/11/21 14:21:03;;;;;;;24.80;21.00;;;5.60;83.10;;;;;;4992633;28;20457;-69
2022/11/21 14:23:30;;;;;;;22.48;18.50;;;5.60;83.40;;;;;;4977450;28;20414;-74
2022/11/21 14:25:58;;;;;;;26.40;21.08;;;5.60;81.60;;;;;;5006554;28;20849;-71
2022/11/21 14:28:28;;;;;;;25.60;20.05;;;5.60;80.70;;;;;;4996826;28;20808;-72
2022/11/21 14:30:58;;;;;;;29.67;23.52;;;5.30;81.40;;;;;;4977676;28;20483;-71
2022/11/21 14:33:40;;;;;;;29.17;23.20;;;5.10;83.40;;;;;;5009389;28;20437;-72
2022/11/21 14:36:24;;;;;;;29.92;23.23;;;4.90;84.30;;;;;;5003421;28;20409;-72
2022/11/21 14:39:00;;;;;;;33.20;25.80;;;4.80;85.50;;;;;;5013107;28;20404;-72
2022/11/21 14:41:26;;;;;;;37.63;27.45;;;4.70;86.30;;;;;;5012603;28;20400;-72
2022/11/21 14:43:59;;;;;;;37.03;27.08;;;4.60;87.20;;;;;;5012549;28;20414;-72
2022/11/21 14:46:26;;;;;;;37.72;27.70;;;4.50;87.30;;;;;;4995197;28;20496;-72
2022/11/21 14:48:52;;;;;;;38.20;27.50;;;4.40;87.70;;;;;;5012304;28;20409;-72
2022/11/21 14:51:21;;;;;;;42.05;30.05;;;4.40;88.40;;;;;;4996044;28;20420;-72
2022/11/21 14:53:48;;;;;;;40.33;28.67;;;4.30;88.80;;;;;;4979524;28;20447;-72
2022/11/21 14:56:24;;;;;;;42.50;29.95;;;4.30;89.00;;;;;;5010751;28;20468;-72
2022/11/21 14:58:50;;;;;;;47.45;31.85;;;4.20;89.40;;;;;;4987785;28;20820;-71
2022/11/21 15:01:21;;;;;;;44.92;31.10;;;4.10;89.90;;;;;;5027484;28;20401;-72
2022/11/21 15:03:56;;;;;;;45.43;31.53;;;4.10;90.00;;;;;;4995448;28;20897;-72
2022/11/21 15:06:22;;;;;;;45.50;31.87;;;4.10;90.20;;;;;;4995472;28;20404;-72
2022/11/21 15:08:48;;;;;;;46.43;32.43;;;4.10;90.30;;;;;;4990991;28;20430;-72
2022/11/21 15:11:14;;;;;;;48.13;32.97;;;4.00;90.40;;;;;;5020925;28;20789;-72
2022/11/21 15:13:40;;;;;;;47.63;34.17;;;4.00;90.50;;;;;;4998485;28;20432;-72
2022/11/21 15:16:05;;;;;;;55.90;36.37;;;3.90;90.60;;;;;;5027548;28;20434;-71
2022/11/21 15:18:32;;;;;;;58.15;37.22;;;3.90;90.80;;;;;;5012457;28;20410;-72
2022/11/21 15:21:01;;;;;;;54.42;36.33;;;3.90;90.90;;;;;;4996608;28;20415;-71